Time;durP1;ratioP1;P1;durP2;ratioP2;P2;SDS_P1;SDS_P2;PMS_P1;PMS_P2;Temp;Humidity;BMP_temperature;BMP_pressure;BME280_temperature;BME280_humidity;BME280_pressure;Samples;Min_cycle;Max_cycle;Signal;HPM_P1;HPM_P2
2022/12/02 00:00:06;;;;;;;5.32;3.85;;;;;;;;;;5064212;28;20029;-47
2022/12/02 00:02:33;;;;;;;5.97;4.28;;;;;;;;;;5073258;28;20035;-47
2022/12/02 00:05:02;;;;;;;5.75;3.88;;;;;;;;;;5072432;28;20140;-46
2022/12/02 00:07:28;;;;;;;6.28;4.18;;;;;;;;;;5073073;28;20032;-46
2022/12/02 00:09:54;;;;;;;5.18;3.80;;;;;;;;;;5072119;28;20537;-47
2022/12/02 00:12:20;;;;;;;5.85;4.15;;;;;;;;;;5074834;28;20051;-47
2022/12/02 00:14:46;;;;;;;6.63;4.65;;;;;;;;;;5072253;28;20051;-47
2022/12/02 00:17:12;;;;;;;5.60;3.97;;;;;;;;;;5073353;28;20127;-46
2022/12/02 00:19:38;;;;;;;4.95;3.70;;;;;;;;;;5073411;28;20111;-47
2022/12/02 00:22:04;;;;;;;6.00;4.18;;;;;;;;;;5076994;28;20043;-47
2022/12/02 00:24:30;;;;;;;6.47;4.63;;;;;;;;;;5073197;28;20117;-46
2022/12/02 00:26:56;;;;;;;6.53;4.32;;;;;;;;;;5077208;28;20016;-47
2022/12/02 00:29:22;;;;;;;6.40;4.45;;;;;;;;;;5067368;28;20370;-47
2022/12/02 00:31:48;;;;;;;5.05;3.90;;;;;;;;;;5077628;28;20035;-47
2022/12/02 00:34:13;;;;;;;5.68;4.05;;;;;;;;;;5072663;28;20024;-46
2022/12/02 00:36:39;;;;;;;6.25;4.40;;;;;;;;;;5081153;28;20032;-46
2022/12/02 00:39:05;;;;;;;7.32;4.65;;;;;;;;;;5072883;28;20025;-46
2022/12/02 00:41:31;;;;;;;6.82;4.15;;;;;;;;;;5073883;28;20103;-47
2022/12/02 00:46:42;;;;;;;6.80;4.38;;;;;;;;;;5072973;28;20078;-46
2022/12/02 00:49:15;;;;;;;6.35;4.38;;;;;;;;;;5074386;27;20047;-47
2022/12/02 00:51:42;;;;;;;6.38;4.38;;;;;;;;;;5067226;28;20513;-46
2022/12/02 00:54:08;;;;;;;5.78;4.25;;;;;;;;;;5075139;28;20048;-46
2022/12/02 00:56:34;;;;;;;6.18;4.60;;;;;;;;;;5072898;28;20036;-46
2022/12/02 00:59:00;;;;;;;4.70;3.72;;;;;;;;;;5062628;28;20037;-47
2022/12/02 01:01:27;;;;;;;5.88;4.10;;;;;;;;;;5065091;28;20816;-47
2022/12/02 01:03:53;;;;;;;6.68;4.38;;;;;;;;;;5068882;28;20470;-46
2022/12/02 01:06:19;;;;;;;5.53;4.07;;;;;;;;;;5072700;28;20042;-47
2022/12/02 01:08:45;;;;;;;8.30;4.63;;;;;;;;;;5071459;28;20055;-46
2022/12/02 01:11:11;;;;;;;6.28;4.50;;;;;;;;;;5075576;28;20060;-46
2022/12/02 01:13:37;;;;;;;6.32;4.60;;;;;;;;;;5071821;28;20029;-47
2022/12/02 01:16:03;;;;;;;6.68;4.75;;;;;;;;;;5070815;28;20091;-46
2022/12/02 01:18:29;;;;;;;6.15;4.32;;;;;;;;;;5063748;28;20116;-46
2022/12/02 01:20:55;;;;;;;5.10;4.03;;;;;;;;;;5066817;28;20440;-46
2022/12/02 01:23:21;;;;;;;7.95;4.90;;;;;;;;;;5080344;28;20028;-46
2022/12/02 01:25:47;;;;;;;5.68;4.60;;;;;;;;;;5071476;28;20035;-48
2022/12/02 01:28:14;;;;;;;6.03;4.63;;;;;;;;;;5071301;28;20123;-46
2022/12/02 01:30:40;;;;;;;5.30;3.90;;;;;;;;;;5065324;28;20112;-47
2022/12/02 01:33:06;;;;;;;6.65;4.47;;;;;;;;;;5063768;28;20040;-47
2022/12/02 01:35:32;;;;;;;6.07;4.22;;;;;;;;;;5071670;28;20028;-46
2022/12/02 01:37:58;;;;;;;5.65;3.90;;;;;;;;;;5070252;28;20028;-46
2022/12/02 01:40:24;;;;;;;6.85;4.60;;;;;;;;;;5078178;28;20032;-46
2022/12/02 01:42:50;;;;;;;5.03;4.18;;;;;;;;;;5070504;28;20458;-47
2022/12/02 01:45:17;;;;;;;7.25;4.82;;;;;;;;;;5071429;28;20027;-46
2022/12/02 01:47:43;;;;;;;6.60;4.40;;;;;;;;;;5071006;28;20401;-46
2022/12/02 01:50:10;;;;;;;5.20;4.15;;;;;;;;;;5076945;27;20041;-46
2022/12/02 01:52:36;;;;;;;6.32;4.10;;;;;;;;;;5071205;28;20300;-46
2022/12/02 01:55:02;;;;;;;6.57;4.38;;;;;;;;;;5070623;28;20037;-46
2022/12/02 01:57:29;;;;;;;5.70;4.10;;;;;;;;;;5069560;28;20032;-46
2022/12/02 01:59:55;;;;;;;5.45;4.18;;;;;;;;;;5069408;28;20399;-46
2022/12/02 02:02:34;;;;;;;5.25;4.38;;;;;;;;;;5066374;28;20107;-46
2022/12/02 02:05:07;;;;;;;4.65;3.75;;;;;;;;;;5059479;28;20017;-46
2022/12/02 02:07:33;;;;;;;5.25;4.13;;;;;;;;;;5065833;28;20503;-46
2022/12/02 02:09:59;;;;;;;5.63;4.15;;;;;;;;;;5080655;28;20033;-46
2022/12/02 02:12:25;;;;;;;6.80;4.68;;;;;;;;;;5066059;28;20020;-46
2022/12/02 02:14:51;;;;;;;5.80;4.43;;;;;;;;;;5070395;28;20040;-47
2022/12/02 02:17:17;;;;;;;7.93;4.75;;;;;;;;;;5070556;28;20020;-46
2022/12/02 02:19:43;;;;;;;6.68;4.53;;;;;;;;;;5070989;28;20033;-46
2022/12/02 02:22:12;;;;;;;4.93;3.95;;;;;;;;;;5068903;28;20078;-46
2022/12/02 02:24:38;;;;;;;5.70;4.03;;;;;;;;;;5078428;28;20104;-46
2022/12/02 02:27:04;;;;;;;6.57;4.50;;;;;;;;;;5073261;28;20522;-46
2022/12/02 02:29:30;;;;;;;5.95;4.22;;;;;;;;;;5065695;28;20045;-46
2022/12/02 02:31:56;;;;;;;6.50;4.13;;;;;;;;;;5066822;28;20516;-46
2022/12/02 02:34:22;;;;;;;6.43;4.65;;;;;;;;;;5070728;28;20020;-46
2022/12/02 02:36:48;;;;;;;6.30;3.88;;;;;;;;;;5070880;28;20032;-48
2022/12/02 02:39:14;;;;;;;6.93;4.43;;;;;;;;;;5070942;28;20023;-47
2022/12/02 02:41:40;;;;;;;5.57;3.90;;;;;;;;;;5070433;28;20028;-46
2022/12/02 02:44:06;;;;;;;6.88;4.75;;;;;;;;;;5069935;28;20073;-46
2022/12/02 02:46:32;;;;;;;5.38;3.95;;;;;;;;;;5075200;28;20032;-46
2022/12/02 02:48:58;;;;;;;5.63;4.07;;;;;;;;;;5072643;28;20173;-46
2022/12/02 02:51:24;;;;;;;5.15;3.55;;;;;;;;;;5075781;27;20131;-46
2022/12/02 02:53:50;;;;;;;5.50;4.05;;;;;;;;;;5073687;28;20118;-47
2022/12/02 02:56:16;;;;;;;6.95;5.07;;;;;;;;;;5078212;28;20032;-46
2022/12/02 02:58:42;;;;;;;5.72;4.28;;;;;;;;;;5073070;28;20033;-47
2022/12/02 03:01:13;;;;;;;6.50;4.53;;;;;;;;;;5074337;28;20025;-46
2022/12/02 03:03:44;;;;;;;5.55;3.88;;;;;;;;;;5077134;28;20025;-47
2022/12/02 03:06:11;;;;;;;6.43;3.85;;;;;;;;;;5073686;28;20028;-47
2022/12/02 03:08:40;;;;;;;5.65;3.95;;;;;;;;;;5058688;28;20025;-46
2022/12/02 03:11:06;;;;;;;5.60;4.28;;;;;;;;;;5070358;28;20292;-47
2022/12/02 03:13:57;;;;;;;6.35;4.35;;;;;;;;;;5076012;28;20028;-46
2022/12/02 03:16:24;;;;;;;5.43;4.22;;;;;;;;;;5074591;28;20099;-47
2022/12/02 03:18:51;;;;;;;6.10;4.45;;;;;;;;;;5073477;28;20478;-48
2022/12/02 03:21:18;;;;;;;5.60;4.38;;;;;;;;;;5073737;28;20040;-46
2022/12/02 03:23:45;;;;;;;5.72;4.53;;;;;;;;;;5072983;28;20022;-47
2022/12/02 03:26:11;;;;;;;6.07;4.57;;;;;;;;;;5062905;28;20079;-46
2022/12/02 03:28:37;;;;;;;5.97;4.55;;;;;;;;;;5074355;28;20038;-47
2022/12/02 03:31:04;;;;;;;6.00;4.30;;;;;;;;;;5068456;28;20138;-46
2022/12/02 03:33:30;;;;;;;5.20;3.95;;;;;;;;;;5067076;28;20105;-46
2022/12/02 03:35:56;;;;;;;5.30;4.13;;;;;;;;;;5064913;28;20024;-46
2022/12/02 03:38:22;;;;;;;6.93;4.45;;;;;;;;;;5074026;28;20371;-46
2022/12/02 03:40:48;;;;;;;5.60;4.05;;;;;;;;;;5075126;28;20048;-47
2022/12/02 03:43:14;;;;;;;5.32;3.75;;;;;;;;;;5073608;28;20047;-46
2022/12/02 03:45:41;;;;;;;5.72;3.58;;;;;;;;;;5073766;28;20029;-46
2022/12/02 03:48:08;;;;;;;5.57;4.32;;;;;;;;;;5072413;28;20021;-46
2022/12/02 03:50:34;;;;;;;6.30;4.38;;;;;;;;;;5069834;27;20057;-46
2022/12/02 03:53:00;;;;;;;6.50;4.72;;;;;;;;;;5055552;28;20028;-46
2022/12/02 03:55:26;;;;;;;6.50;5.00;;;;;;;;;;5060900;28;20374;-46
2022/12/02 03:57:52;;;;;;;6.07;4.15;;;;;;;;;;5052251;28;20086;-47
2022/12/02 04:00:18;;;;;;;6.82;4.20;;;;;;;;;;5047613;28;20033;-46
2022/12/02 04:02:44;;;;;;;6.88;4.80;;;;;;;;;;5051382;28;20474;-46
2022/12/02 04:05:10;;;;;;;7.95;4.85;;;;;;;;;;5052748;28;20028;-47
2022/12/02 04:07:36;;;;;;;5.68;4.03;;;;;;;;;;5045647;28;20394;-47
2022/12/02 04:10:03;;;;;;;9.10;4.50;;;;;;;;;;5046163;28;20143;-46
2022/12/02 04:12:29;;;;;;;5.93;4.03;;;;;;;;;;5054104;28;20044;-46
2022/12/02 04:14:55;;;;;;;5.55;4.45;;;;;;;;;;5051903;28;20052;-47
2022/12/02 04:17:21;;;;;;;5.70;4.22;;;;;;;;;;5052658;28;20147;-46
2022/12/02 04:19:47;;;;;;;5.90;4.32;;;;;;;;;;5052768;28;20056;-47
2022/12/02 04:22:13;;;;;;;6.30;4.15;;;;;;;;;;5057481;28;20029;-46
2022/12/02 04:24:39;;;;;;;5.82;4.40;;;;;;;;;;5053204;28;20370;-46
2022/12/02 04:27:05;;;;;;;6.75;4.30;;;;;;;;;;5044874;28;20029;-46
2022/12/02 04:29:31;;;;;;;5.18;4.05;;;;;;;;;;5043500;28;20068;-46
2022/12/02 04:31:57;;;;;;;5.68;3.90;;;;;;;;;;5058126;28;20783;-46
2022/12/02 04:34:23;;;;;;;5.72;4.32;;;;;;;;;;5053019;28;20033;-46
2022/12/02 04:36:49;;;;;;;5.55;3.85;;;;;;;;;;5052480;28;20021;-47
2022/12/02 04:39:15;;;;;;;6.63;5.15;;;;;;;;;;5058269;28;20571;-46
2022/12/02 04:41:41;;;;;;;5.28;3.35;;;;;;;;;;5053256;28;20103;-46
2022/12/02 04:44:07;;;;;;;6.00;4.03;;;;;;;;;;5052302;28;20025;-47
2022/12/02 04:46:33;;;;;;;6.45;4.93;;;;;;;;;;5052318;28;20078;-46
2022/12/02 04:48:59;;;;;;;6.38;3.60;;;;;;;;;;5048083;28;20021;-46
2022/12/02 04:51:25;;;;;;;6.28;4.63;;;;;;;;;;5074993;27;20044;-46
2022/12/02 04:53:51;;;;;;;5.80;4.13;;;;;;;;;;5086592;28;20032;-47
2022/12/02 04:56:17;;;;;;;5.72;3.80;;;;;;;;;;5097464;28;20065;-47
2022/12/02 04:58:43;;;;;;;5.93;3.78;;;;;;;;;;5092650;28;20043;-46
2022/12/02 05:01:09;;;;;;;6.03;4.10;;;;;;;;;;5092286;28;20122;-46
2022/12/02 05:03:35;;;;;;;4.97;3.47;;;;;;;;;;5092434;28;20028;-47
2022/12/02 05:06:01;;;;;;;5.47;4.07;;;;;;;;;;5091895;28;20028;-47
2022/12/02 05:08:27;;;;;;;6.05;4.38;;;;;;;;;;5091137;28;20035;-47
2022/12/02 05:10:53;;;;;;;6.75;5.15;;;;;;;;;;5087562;28;20413;-47
2022/12/02 05:13:18;;;;;;;5.93;4.25;;;;;;;;;;5094425;28;20102;-46
2022/12/02 05:15:44;;;;;;;5.22;3.92;;;;;;;;;;5092094;28;20035;-46
2022/12/02 05:18:10;;;;;;;5.90;4.18;;;;;;;;;;5091308;28;20059;-47
2022/12/02 05:20:36;;;;;;;5.65;4.25;;;;;;;;;;5095045;28;20028;-47
2022/12/02 05:23:02;;;;;;;6.57;4.75;;;;;;;;;;5092112;28;20051;-47
2022/12/02 05:25:28;;;;;;;7.30;4.60;;;;;;;;;;5092049;28;20032;-47
2022/12/02 05:27:54;;;;;;;5.32;3.80;;;;;;;;;;5100575;28;20058;-47
2022/12/02 05:30:20;;;;;;;5.45;4.10;;;;;;;;;;5097175;28;20054;-46
2022/12/02 05:32:46;;;;;;;5.80;4.15;;;;;;;;;;5091821;28;20465;-47
2022/12/02 05:35:12;;;;;;;5.60;3.65;;;;;;;;;;5103795;28;20020;-47
2022/12/02 05:37:38;;;;;;;6.45;4.13;;;;;;;;;;5091397;28;20037;-46
2022/12/02 05:40:05;;;;;;;5.60;4.32;;;;;;;;;;5096471;28;20085;-47
2022/12/02 05:42:31;;;;;;;5.70;3.75;;;;;;;;;;5104762;28;20036;-46
2022/12/02 05:45:00;;;;;;;5.93;4.15;;;;;;;;;;5095894;28;20448;-47
2022/12/02 05:47:28;;;;;;;5.35;3.60;;;;;;;;;;5091412;28;20496;-46
2022/12/02 05:49:55;;;;;;;5.90;3.78;;;;;;;;;;5093050;28;20043;-47
2022/12/02 05:52:25;;;;;;;5.30;4.15;;;;;;;;;;5088825;28;20058;-47
2022/12/02 05:54:52;;;;;;;4.93;3.63;;;;;;;;;;5087662;28;20020;-48
2022/12/02 05:57:21;;;;;;;5.97;3.67;;;;;;;;;;5091323;28;20039;-47
2022/12/02 05:59:47;;;;;;;7.35;4.55;;;;;;;;;;5093403;28;20039;-48
2022/12/02 06:02:22;;;;;;;6.68;4.28;;;;;;;;;;5095196;28;20027;-47
2022/12/02 06:04:48;;;;;;;6.05;4.20;;;;;;;;;;5087577;28;20016;-47
2022/12/02 06:07:14;;;;;;;5.85;4.22;;;;;;;;;;5094264;28;20038;-46
2022/12/02 06:09:40;;;;;;;5.20;3.97;;;;;;;;;;5092062;28;20036;-47
2022/12/02 06:12:11;;;;;;;5.45;3.70;;;;;;;;;;5081075;28;20026;-46
2022/12/02 06:14:37;;;;;;;6.47;4.23;;;;;;;;;;5086449;28;20107;-46
2022/12/02 06:17:10;;;;;;;6.15;4.05;;;;;;;;;;5092417;28;20099;-46
2022/12/02 06:19:35;;;;;;;5.35;3.65;;;;;;;;;;5087111;28;20024;-46
2022/12/02 06:22:01;;;;;;;6.53;4.00;;;;;;;;;;5089541;28;20031;-47
2022/12/02 06:24:29;;;;;;;6.20;4.10;;;;;;;;;;5096411;28;20028;-46
2022/12/02 06:26:57;;;;;;;6.57;5.00;;;;;;;;;;5095197;28;20024;-47
2022/12/02 06:29:24;;;;;;;5.25;4.30;;;;;;;;;;5095858;28;20046;-46
2022/12/02 06:31:50;;;;;;;7.32;4.82;;;;;;;;;;5089976;28;20027;-47
2022/12/02 06:34:21;;;;;;;4.63;3.58;;;;;;;;;;5082800;28;20028;-47
2022/12/02 06:36:47;;;;;;;;;;;;;;;;;;5096635;28;20026;-48
2022/12/02 06:39:23;;;;;;;5.38;3.97;;;;;;;;;;5088166;28;19907;-46
2022/12/02 06:41:49;;;;;;;5.93;4.15;;;;;;;;;;5091429;28;20024;-47
2022/12/02 06:47:29;;;;;;;7.60;4.53;;;;;;;;;;5081103;28;20416;-46
2022/12/02 06:49:55;;;;;;;;;;;;;;;;;;5068030;28;20056;-45
2022/12/02 06:52:21;;;;;;;6.22;4.20;;;;;;;;;;5073823;28;20003;-47
2022/12/02 06:54:48;;;;;;;8.25;4.13;;;;;;;;;;5071726;28;20369;-48
2022/12/02 06:57:15;;;;;;;8.10;4.82;;;;;;;;;;5070429;28;20025;-45
2022/12/02 06:59:43;;;;;;;13.32;4.53;;;;;;;;;;5069899;28;20083;-46
2022/12/02 07:02:29;;;;;;;10.68;4.53;;;;;;;;;;5065233;28;20107;-46
2022/12/02 07:04:55;;;;;;;13.82;5.07;;;;;;;;;;5072822;28;20020;-46
2022/12/02 07:07:22;;;;;;;7.65;4.43;;;;;;;;;;5074514;28;20033;-46
2022/12/02 07:09:52;;;;;;;9.65;4.43;;;;;;;;;;5071539;28;20036;-48
2022/12/02 07:12:22;;;;;;;10.40;4.63;;;;;;;;;;5070476;28;20060;-46
2022/12/02 07:14:53;;;;;;;10.05;4.43;;;;;;;;;;5070301;28;20070;-48
2022/12/02 07:17:34;;;;;;;10.98;4.85;;;;;;;;;;5070528;28;20028;-46
2022/12/02 07:20:06;;;;;;;12.48;4.50;;;;;;;;;;5069693;28;20036;-46
2022/12/02 07:22:37;;;;;;;8.27;4.70;;;;;;;;;;5081406;28;20033;-46
2022/12/02 07:25:09;;;;;;;11.57;4.83;;;;;;;;;;5080591;28;20107;-46
2022/12/02 07:27:43;;;;;;;9.93;5.13;;;;;;;;;;5067844;28;20067;-45
2022/12/02 07:30:28;;;;;;;8.65;4.38;;;;;;;;;;5067596;28;20564;-46
2022/12/02 07:32:53;;;;;;;12.45;4.32;;;;;;;;;;5061165;28;20056;-46
2022/12/02 07:35:19;;;;;;;8.93;4.30;;;;;;;;;;5075769;28;20051;-46
2022/12/02 07:37:47;;;;;;;9.55;5.07;;;;;;;;;;5066659;28;20474;-46
2022/12/02 07:40:15;;;;;;;9.13;4.43;;;;;;;;;;5076738;28;20032;-39
2022/12/02 07:42:42;;;;;;;10.10;4.97;;;;;;;;;;5073970;28;20055;-39
2022/12/02 07:45:08;;;;;;;9.38;4.72;;;;;;;;;;5074150;28;20040;-39
2022/12/02 07:47:34;;;;;;;11.63;4.97;;;;;;;;;;5069385;28;20059;-40
2022/12/02 07:50:00;;;;;;;10.10;4.53;;;;;;;;;;5066160;28;20059;-39
2022/12/02 07:52:26;;;;;;;10.18;4.63;;;;;;;;;;5070974;28;20086;-39
2022/12/02 07:54:53;;;;;;;11.00;5.28;;;;;;;;;;5065307;28;20028;-39
2022/12/02 07:57:19;;;;;;;9.57;4.43;;;;;;;;;;5073419;28;20021;-39
2022/12/02 07:59:45;;;;;;;14.50;4.00;;;;;;;;;;5070942;28;20032;-39
2022/12/02 08:02:11;;;;;;;9.30;5.82;;;;;;;;;;5064042;28;20032;-40
2022/12/02 08:04:37;;;;;;;12.20;4.78;;;;;;;;;;5064400;28;20382;-39
2022/12/02 08:07:03;;;;;;;9.23;4.95;;;;;;;;;;5071078;28;20016;-40
2022/12/02 08:09:29;;;;;;;9.48;5.10;;;;;;;;;;5063598;28;20059;-40
2022/12/02 08:11:55;;;;;;;9.70;5.05;;;;;;;;;;5069422;28;20032;-40
2022/12/02 08:14:21;;;;;;;9.70;4.55;;;;;;;;;;5064386;28;20025;-40
2022/12/02 08:16:47;;;;;;;10.43;5.22;;;;;;;;;;5075511;28;20027;-40
2022/12/02 08:19:13;;;;;;;12.00;5.00;;;;;;;;;;5071005;28;20032;-40
2022/12/02 08:21:39;;;;;;;11.50;5.25;;;;;;;;;;5068062;28;20110;-40
2022/12/02 08:24:06;;;;;;;7.72;3.80;;;;;;;;;;5067887;28;20549;-40
2022/12/02 08:26:32;;;;;;;7.65;4.13;;;;;;;;;;5072270;28;20056;-41
2022/12/02 08:28:58;;;;;;;10.57;4.53;;;;;;;;;;5066458;28;20511;-41
2022/12/02 08:31:24;;;;;;;10.43;5.70;;;;;;;;;;5061362;28;20037;-41
2022/12/02 08:33:50;;;;;;;13.57;5.40;;;;;;;;;;5071626;28;20443;-40
2022/12/02 08:36:16;;;;;;;12.63;5.50;;;;;;;;;;5062533;28;20028;-40
2022/12/02 08:38:43;;;;;;;6.95;4.35;;;;;;;;;;5068557;28;20032;-40
2022/12/02 08:41:09;;;;;;;6.70;4.43;;;;;;;;;;5065775;28;20029;-40
2022/12/02 08:43:35;;;;;;;9.38;4.88;;;;;;;;;;5068915;28;20377;-40
2022/12/02 08:46:01;;;;;;;7.97;5.03;;;;;;;;;;5068670;28;20024;-40
2022/12/02 08:48:27;;;;;;;9.40;4.63;;;;;;;;;;5072500;28;20033;-40
2022/12/02 08:50:53;;;;;;;10.82;5.30;;;;;;;;;;5068580;28;20053;-41
2022/12/02 08:53:20;;;;;;;7.47;4.20;;;;;;;;;;5064666;28;20020;-40
2022/12/02 08:55:46;;;;;;;8.27;4.60;;;;;;;;;;5067282;28;20127;-40
2022/12/02 08:58:12;;;;;;;8.23;4.43;;;;;;;;;;5071362;28;20028;-40
2022/12/02 09:00:39;;;;;;;7.07;3.97;;;;;;;;;;5071009;28;20047;-40
2022/12/02 09:03:06;;;;;;;9.77;4.93;;;;;;;;;;5067857;28;20075;-40
2022/12/02 09:05:32;;;;;;;8.73;5.38;;;;;;;;;;5068331;28;20037;-40
2022/12/02 09:07:58;;;;;;;8.95;4.40;;;;;;;;;;5058408;28;20362;-40
2022/12/02 09:10:24;;;;;;;8.90;4.72;;;;;;;;;;5070570;28;20047;-40
2022/12/02 09:12:50;;;;;;;9.40;4.47;;;;;;;;;;5069103;28;20036;-41
2022/12/02 09:15:16;;;;;;;11.32;4.78;;;;;;;;;;5070455;28;20027;-39
2022/12/02 09:17:42;;;;;;;8.63;4.65;;;;;;;;;;5071429;28;20025;-41
2022/12/02 09:20:08;;;;;;;8.30;4.70;;;;;;;;;;5067822;28;20690;-40
2022/12/02 09:22:34;;;;;;;8.80;4.20;;;;;;;;;;5070123;28;20024;-39
2022/12/02 09:25:00;;;;;;;9.52;4.38;;;;;;;;;;5066965;28;20028;-39
2022/12/02 09:27:26;;;;;;;7.53;4.47;;;;;;;;;;5070899;28;20032;-40
2022/12/02 09:29:52;;;;;;;11.70;5.40;;;;;;;;;;5071315;28;20036;-40
2022/12/02 09:32:18;;;;;;;11.82;5.20;;;;;;;;;;5069853;28;20025;-38
2022/12/02 09:34:44;;;;;;;11.90;4.97;;;;;;;;;;5070454;28;20025;-39
2022/12/02 09:37:10;;;;;;;8.07;4.38;;;;;;;;;;5070330;28;20443;-39
2022/12/02 09:39:36;;;;;;;7.80;4.45;;;;;;;;;;5063893;28;20024;-39
2022/12/02 09:42:02;;;;;;;9.85;5.35;;;;;;;;;;5056618;28;20085;-39
2022/12/02 09:44:28;;;;;;;9.75;4.68;;;;;;;;;;5051170;28;20052;-39
2022/12/02 09:46:54;;;;;;;8.10;4.53;;;;;;;;;;5068745;28;20071;-39
2022/12/02 09:49:20;;;;;;;9.93;4.25;;;;;;;;;;5070252;28;20024;-40
2022/12/02 09:51:46;;;;;;;7.80;4.68;;;;;;;;;;5071513;27;20057;-39
2022/12/02 09:54:14;;;;;;;7.32;4.18;;;;;;;;;;5066393;28;20477;-39
2022/12/02 09:56:40;;;;;;;8.60;4.90;;;;;;;;;;5070855;28;20449;-39
2022/12/02 09:59:11;;;;;;;8.10;4.30;;;;;;;;;;5067943;28;20039;-39
2022/12/02 10:01:39;;;;;;;7.38;4.18;;;;;;;;;;5065779;28;20044;-39
2022/12/02 10:04:05;;;;;;;7.82;4.70;;;;;;;;;;5064890;28;21015;-39
2022/12/02 10:06:31;;;;;;;11.35;5.10;;;;;;;;;;5070615;28;20047;-40
2022/12/02 10:08:57;;;;;;;7.25;4.35;;;;;;;;;;5062735;28;20031;-39
2022/12/02 10:11:26;;;;;;;6.80;4.28;;;;;;;;;;5064164;28;20040;-39
2022/12/02 10:13:52;;;;;;;7.63;4.45;;;;;;;;;;5070379;28;20024;-39
2022/12/02 10:16:18;;;;;;;6.90;3.92;;;;;;;;;;5070773;28;20029;-39
2022/12/02 10:18:45;;;;;;;7.40;3.95;;;;;;;;;;5067573;28;20056;-39
2022/12/02 10:21:11;;;;;;;8.18;4.68;;;;;;;;;;5064277;28;20470;-39
2022/12/02 10:23:55;;;;;;;7.63;4.30;;;;;;;;;;5067416;28;20027;-39
2022/12/02 10:26:22;;;;;;;8.32;4.47;;;;;;;;;;5057281;28;20033;-39
2022/12/02 10:29:07;;;;;;;6.78;4.03;;;;;;;;;;5065856;28;20021;-41
2022/12/02 10:31:33;;;;;;;6.40;3.90;;;;;;;;;;5061942;28;20067;-39
2022/12/02 10:34:01;;;;;;;7.40;3.90;;;;;;;;;;5067792;28;20098;-39
2022/12/02 10:36:37;;;;;;;5.50;4.20;;;;;;;;;;5066811;28;20224;-39
2022/12/02 10:39:22;;;;;;;6.78;3.75;;;;;;;;;;5060801;28;20023;-39
2022/12/02 10:42:09;;;;;;;7.75;3.72;;;;;;;;;;5067458;28;20039;-41
2022/12/02 10:44:35;;;;;;;9.05;4.28;;;;;;;;;;5069549;28;20031;-39
2022/12/02 10:47:17;;;;;;;6.00;3.85;;;;;;;;;;5064519;28;20021;-39
2022/12/02 10:50:01;;;;;;;7.15;4.35;;;;;;;;;;5068622;28;20107;-39
2022/12/02 10:52:29;;;;;;;4.60;3.17;;;;;;;;;;5066706;28;20053;-40
2022/12/02 10:54:55;;;;;;;9.10;3.90;;;;;;;;;;5067730;28;20121;-39
2022/12/02 10:57:26;;;;;;;6.75;3.90;;;;;;;;;;5073747;28;20038;-39
2022/12/02 10:59:53;;;;;;;6.45;4.00;;;;;;;;;;5069114;28;20024;-39
2022/12/02 11:02:41;;;;;;;6.03;3.83;;;;;;;;;;5059509;28;20028;-39
2022/12/02 11:05:31;;;;;;;6.13;3.70;;;;;;;;;;5061893;28;20033;-41
2022/12/02 11:07:59;;;;;;;5.70;4.40;;;;;;;;;;5059216;28;20059;-39
2022/12/02 11:10:26;;;;;;;6.25;3.50;;;;;;;;;;5061501;28;20039;-41
2022/12/02 11:12:53;;;;;;;6.97;4.25;;;;;;;;;;5071525;28;20075;-40
2022/12/02 11:15:42;;;;;;;7.00;3.45;;;;;;;;;;5071843;28;20082;-39
2022/12/02 11:18:09;;;;;;;7.35;3.97;;;;;;;;;;5072226;28;20044;-40
2022/12/02 11:20:40;;;;;;;5.90;3.92;;;;;;;;;;5074060;28;20025;-39
2022/12/02 11:23:15;;;;;;;5.05;3.22;;;;;;;;;;5066447;28;20075;-39
2022/12/02 11:25:47;;;;;;;5.43;3.25;;;;;;;;;;5064213;28;20025;-39
2022/12/02 11:28:29;;;;;;;5.85;3.72;;;;;;;;;;5062228;28;20115;-39
2022/12/02 11:31:10;;;;;;;6.20;3.37;;;;;;;;;;5071027;28;20056;-39
2022/12/02 11:33:42;;;;;;;8.38;3.70;;;;;;;;;;5070274;28;20119;-39
2022/12/02 11:36:09;;;;;;;;;;;;;;;;;;5060365;28;20029;-39
2022/12/02 11:39:00;;;;;;;14.55;5.25;;;;;;;;;;5072656;28;20403;-38
2022/12/02 11:41:51;;;;;;;16.73;5.85;;;;;;;;;;5061216;28;20439;-39
2022/12/02 11:44:42;;;;;;;20.88;7.63;;;;;;;;;;5068581;28;20028;-39
2022/12/02 11:47:33;;;;;;;16.42;5.72;;;;;;;;;;5060818;28;20039;-39
2022/12/02 11:50:12;;;;;;;21.33;6.75;;;;;;;;;;5074361;28;20051;-38
2022/12/02 11:52:39;;;;;;;20.58;6.20;;;;;;;;;;5073857;28;20071;-39
2022/12/02 11:55:15;;;;;;;16.20;6.55;;;;;;;;;;5075369;28;20021;-38
2022/12/02 11:57:52;;;;;;;13.88;6.10;;;;;;;;;;5071924;28;20032;-38
2022/12/02 12:00:21;;;;;;;13.52;6.55;;;;;;;;;;5074936;28;20056;-38
2022/12/02 12:02:47;;;;;;;13.50;6.55;;;;;;;;;;5065510;28;20060;-40
2022/12/02 12:05:13;;;;;;;13.32;5.88;;;;;;;;;;5089545;28;20059;-42
2022/12/02 12:07:40;;;;;;;7.78;4.18;;;;;;;;;;5059425;28;20040;-39
2022/12/02 12:10:06;;;;;;;14.35;5.28;;;;;;;;;;5074335;28;20439;-39
2022/12/02 12:12:32;;;;;;;6.97;4.18;;;;;;;;;;5076810;28;20465;-39
2022/12/02 12:14:58;;;;;;;11.63;4.30;;;;;;;;;;5082532;28;20103;-38
2022/12/02 12:17:32;;;;;;;8.63;4.40;;;;;;;;;;5083605;28;20020;-38
2022/12/02 12:19:58;;;;;;;8.98;4.57;;;;;;;;;;5071880;28;20036;-38
2022/12/02 12:22:25;;;;;;;9.20;4.25;;;;;;;;;;5048361;28;20377;-38
2022/12/02 12:24:52;;;;;;;12.45;4.32;;;;;;;;;;5067244;28;20424;-39
2022/12/02 12:27:34;;;;;;;13.10;4.10;;;;;;;;;;5066445;28;20032;-38
2022/12/02 12:30:00;;;;;;;8.68;4.60;;;;;;;;;;5063983;28;20029;-38
2022/12/02 12:32:26;;;;;;;7.40;3.78;;;;;;;;;;5059521;28;20052;-39
2022/12/02 12:34:52;;;;;;;11.48;3.70;;;;;;;;;;5066590;28;20548;-39
2022/12/02 12:37:18;;;;;;;8.40;3.90;;;;;;;;;;5067812;28;20017;-38
2022/12/02 12:39:44;;;;;;;10.73;4.15;;;;;;;;;;5070598;28;20029;-39
2022/12/02 12:42:10;;;;;;;8.18;4.45;;;;;;;;;;5066947;28;20099;-40
2022/12/02 12:44:36;;;;;;;7.97;3.35;;;;;;;;;;5036919;28;20035;-38
2022/12/02 12:47:04;;;;;;;10.90;3.53;;;;;;;;;;5061822;28;20028;-38
2022/12/02 12:49:30;;;;;;;8.13;3.17;;;;;;;;;;5053020;28;20041;-44
2022/12/02 12:51:56;;;;;;;11.90;3.92;;;;;;;;;;5066293;28;20053;-44
2022/12/02 12:54:22;;;;;;;8.80;3.92;;;;;;;;;;5071820;28;20058;-45
2022/12/02 12:56:48;;;;;;;5.25;3.28;;;;;;;;;;5064947;28;20020;-47
2022/12/02 12:59:14;;;;;;;5.97;4.03;;;;;;;;;;5068037;28;20491;-45
2022/12/02 13:01:40;;;;;;;6.47;3.08;;;;;;;;;;5069715;28;20055;-44
2022/12/02 13:04:06;;;;;;;7.95;3.45;;;;;;;;;;5069368;28;20031;-45
2022/12/02 13:06:32;;;;;;;7.97;3.45;;;;;;;;;;5070839;28;20032;-45
2022/12/02 13:08:58;;;;;;;8.18;3.70;;;;;;;;;;5068556;28;20028;-45
2022/12/02 13:11:25;;;;;;;8.02;3.80;;;;;;;;;;5070247;28;20481;-45
2022/12/02 13:13:51;;;;;;;6.43;3.00;;;;;;;;;;5068878;28;20031;-47
2022/12/02 13:16:17;;;;;;;5.28;2.58;;;;;;;;;;5067719;28;20099;-44
2022/12/02 13:18:43;;;;;;;8.60;3.70;;;;;;;;;;5071032;28;20025;-45
2022/12/02 13:21:09;;;;;;;7.45;3.30;;;;;;;;;;5069542;28;20020;-44
2022/12/02 13:23:35;;;;;;;5.15;2.75;;;;;;;;;;5066829;28;20025;-44
2022/12/02 13:26:01;;;;;;;10.68;3.10;;;;;;;;;;5068704;28;20107;-44
2022/12/02 13:28:27;;;;;;;4.53;2.72;;;;;;;;;;5070721;28;20025;-44
2022/12/02 13:30:54;;;;;;;4.63;2.53;;;;;;;;;;5069808;28;20063;-47
2022/12/02 13:33:20;;;;;;;7.10;3.70;;;;;;;;;;5057167;28;20112;-45
2022/12/02 13:35:46;;;;;;;6.07;3.00;;;;;;;;;;5066528;28;20040;-47
2022/12/02 13:38:13;;;;;;;8.30;3.13;;;;;;;;;;5069907;28;20439;-47
2022/12/02 13:40:39;;;;;;;11.65;3.25;;;;;;;;;;5070426;28;20023;-45
2022/12/02 13:43:05;;;;;;;4.80;2.75;;;;;;;;;;5066067;28;20013;-44
2022/12/02 13:45:31;;;;;;;11.07;3.08;;;;;;;;;;5069385;28;20025;-45
2022/12/02 13:47:58;;;;;;;5.22;2.50;;;;;;;;;;5069659;28;20027;-44
2022/12/02 13:50:24;;;;;;;5.57;2.63;;;;;;;;;;5070331;28;20020;-45
2022/12/02 13:52:51;;;;;;;3.75;2.63;;;;;;;;;;5066737;28;20063;-44
2022/12/02 13:55:17;;;;;;;9.07;2.83;;;;;;;;;;5070247;28;20027;-44
2022/12/02 13:57:43;;;;;;;9.75;2.72;;;;;;;;;;5054926;28;20029;-46
2022/12/02 14:00:10;;;;;;;5.95;2.55;;;;;;;;;;5056600;28;20611;-44
2022/12/02 14:02:36;;;;;;;7.70;2.83;;;;;;;;;;5057282;28;20029;-45
2022/12/02 14:05:02;;;;;;;8.63;3.17;;;;;;;;;;5061164;28;20128;-45
2022/12/02 14:07:28;;;;;;;9.20;3.28;;;;;;;;;;5051001;28;20039;-44
2022/12/02 14:09:54;;;;;;;6.22;3.22;;;;;;;;;;5065125;28;20420;-44
2022/12/02 14:12:19;;;;;;;7.22;2.95;;;;;;;;;;5070538;28;20048;-44
2022/12/02 14:14:45;;;;;;;4.85;2.63;;;;;;;;;;5062080;28;20076;-44
2022/12/02 14:17:11;;;;;;;7.60;3.13;;;;;;;;;;5066976;28;20029;-44
2022/12/02 14:19:37;;;;;;;5.82;2.92;;;;;;;;;;5071783;28;20064;-46
2022/12/02 14:22:03;;;;;;;9.23;2.85;;;;;;;;;;5069723;28;20044;-44
2022/12/02 14:24:29;;;;;;;4.95;2.40;;;;;;;;;;5065400;28;20488;-44
2022/12/02 14:26:55;;;;;;;6.13;2.75;;;;;;;;;;5063208;28;20024;-44
2022/12/02 14:29:21;;;;;;;5.35;2.30;;;;;;;;;;5070744;28;20032;-44
2022/12/02 14:31:47;;;;;;;7.32;2.78;;;;;;;;;;5065566;28;20036;-48
2022/12/02 14:34:13;;;;;;;9.13;2.60;;;;;;;;;;5066820;28;20024;-44
2022/12/02 14:36:39;;;;;;;4.82;2.38;;;;;;;;;;5061804;28;20043;-44
2022/12/02 14:39:06;;;;;;;5.05;2.78;;;;;;;;;;5062772;28;20035;-45
2022/12/02 14:41:32;;;;;;;6.93;2.25;;;;;;;;;;5068021;28;20571;-44
2022/12/02 14:43:58;;;;;;;8.85;4.03;;;;;;;;;;5070483;28;20024;-44
2022/12/02 14:46:25;;;;;;;5.43;2.70;;;;;;;;;;5077125;28;20372;-44
2022/12/02 14:48:51;;;;;;;6.03;2.50;;;;;;;;;;5073360;28;20025;-47
2022/12/02 14:51:17;;;;;;;5.65;2.70;;;;;;;;;;5059148;28;20088;-45